sensor_id;sensor_type;location;lat;lon;timestamp;pressure;altitude;pressure_sealevel;temperature;humidity
69982;BME280;57319;56.274;43.980;2023-01-10T00:00:47;102656.47;;;-28.68;nan
69982;BME280;57319;56.274;43.980;2023-01-10T00:03:12;102654.94;;;-28.67;nan
69982;BME280;57319;56.274;43.980;2023-01-10T00:05:38;102663.63;;;-28.60;nan
69982;BME280;57319;56.274;43.980;2023-01-10T00:08:04;102655.41;;;-28.56;nan
69982;BME280;57319;56.274;43.980;2023-01-10T00:10:30;102662.88;;;-28.50;nan
69982;BME280;57319;56.274;43.980;2023-01-10T00:12:56;102666.41;;;-28.40;nan
69982;BME280;57319;56.274;43.980;2023-01-10T00:15:40;102672.97;;;-28.31;nan
69982;BME280;57319;56.274;43.980;2023-01-10T00:18:05;102668.03;;;-28.23;nan
69982;BME280;57319;56.274;43.980;2023-01-10T00:20:31;102658.84;;;-28.15;nan
69982;BME280;57319;56.274;43.980;2023-01-10T00:22:56;102661.16;;;-28.07;nan
69982;BME280;57319;56.274;43.980;2023-01-10T00:25:21;102657.72;;;-27.99;nan
69982;BME280;57319;56.274;43.980;2023-01-10T00:27:47;102657.16;;;-28.02;nan
69982;BME280;57319;56.274;43.980;2023-01-10T00:30:46;102659.78;;;-27.97;nan
69982;BME280;57319;56.274;43.980;2023-01-10T00:33:12;102666.88;;;-27.84;nan
69982;BME280;57319;56.274;43.980;2023-01-10T00:35:43;102663.44;;;-27.77;nan
69982;BME280;57319;56.274;43.980;2023-01-10T00:38:09;102672.13;;;-27.69;nan
69982;BME280;57319;56.274;43.980;2023-01-10T00:40:34;102666.31;;;-27.65;nan
69982;BME280;57319;56.274;43.980;2023-01-10T00:43:00;102678.47;;;-27.69;nan
69982;BME280;57319;56.274;43.980;2023-01-10T00:45:44;102660.91;;;-27.91;nan
69982;BME280;57319;56.274;43.980;2023-01-10T00:48:10;102662.38;;;-27.87;nan
69982;BME280;57319;56.274;43.980;2023-01-10T00:50:35;102678.09;;;-27.85;nan
69982;BME280;57319;56.274;43.980;2023-01-10T00:53:01;102680.50;;;-27.85;nan
69982;BME280;57319;56.274;43.980;2023-01-10T00:55:26;102665.09;;;-27.85;nan
69982;BME280;57319;56.274;43.980;2023-01-10T00:57:52;102662.16;;;-27.93;nan
69982;BME280;57319;56.274;43.980;2023-01-10T01:00:18;102669.34;;;-27.89;nan
69982;BME280;57319;56.274;43.980;2023-01-10T01:02:43;102673.41;;;-27.97;nan
69982;BME280;57319;56.274;43.980;2023-01-10T01:05:08;102680.63;;;-27.93;nan
69982;BME280;57319;56.274;43.980;2023-01-10T01:07:34;102671.69;;;-28.02;nan
69982;BME280;57319;56.274;43.980;2023-01-10T01:10:00;102675.31;;;-28.00;nan
69982;BME280;57319;56.274;43.980;2023-01-10T01:12:43;102678.38;;;-28.06;nan
69982;BME280;57319;56.274;43.980;2023-01-10T01:15:09;102673.28;;;-28.07;nan
69982;BME280;57319;56.274;43.980;2023-01-10T01:17:34;102667.13;;;-28.01;nan
69982;BME280;57319;56.274;43.980;2023-01-10T01:20:00;102667.47;;;-28.03;nan
69982;BME280;57319;56.274;43.980;2023-01-10T01:22:25;102659.63;;;-28.07;nan
69982;BME280;57319;56.274;43.980;2023-01-10T01:24:50;102654.81;;;-28.07;nan
69982;BME280;57319;56.274;43.980;2023-01-10T01:27:16;102661.72;;;-28.04;nan
69982;BME280;57319;56.274;43.980;2023-01-10T01:29:41;102659.31;;;-28.04;nan
69982;BME280;57319;56.274;43.980;2023-01-10T01:32:06;102658.28;;;-27.96;nan
69982;BME280;57319;56.274;43.980;2023-01-10T01:34:32;102666.44;;;-27.96;nan
69982;BME280;57319;56.274;43.980;2023-01-10T01:36:57;102664.63;;;-27.97;nan
69982;BME280;57319;56.274;43.980;2023-01-10T01:39:23;102671.59;;;-27.98;nan
69982;BME280;57319;56.274;43.980;2023-01-10T01:41:48;102670.56;;;-28.09;nan
69982;BME280;57319;56.274;43.980;2023-01-10T01:44:23;102667.56;;;-28.12;nan
69982;BME280;57319;56.274;43.980;2023-01-10T01:47:00;102672.56;;;-28.24;nan
69982;BME280;57319;56.274;43.980;2023-01-10T01:49:26;102685.09;;;-28.35;nan
69982;BME280;57319;56.274;43.980;2023-01-10T01:51:54;102693.38;;;-28.47;nan
69982;BME280;57319;56.274;43.980;2023-01-10T01:54:21;102687.09;;;-28.54;nan
69982;BME280;57319;56.274;43.980;2023-01-10T01:56:49;102687.78;;;-28.60;nan
69982;BME280;57319;56.274;43.980;2023-01-10T01:59:17;102677.28;;;-28.64;nan
69982;BME280;57319;56.274;43.980;2023-01-10T02:01:45;102678.19;;;-28.64;nan
69982;BME280;57319;56.274;43.980;2023-01-10T02:06:40;102688.63;;;-28.55;nan
69982;BME280;57319;56.274;43.980;2023-01-10T02:09:11;102696.50;;;-28.56;nan
69982;BME280;57319;56.274;43.980;2023-01-10T02:11:40;102691.66;;;-28.56;nan
69982;BME280;57319;56.274;43.980;2023-01-10T02:14:05;102694.72;;;-28.61;nan
69982;BME280;57319;56.274;43.980;2023-01-10T02:16:32;102698.44;;;-28.63;nan
69982;BME280;57319;56.274;43.980;2023-01-10T02:18:57;102688.22;;;-28.70;nan
69982;BME280;57319;56.274;43.980;2023-01-10T02:21:36;102688.22;;;-28.70;nan
69982;BME280;57319;56.274;43.980;2023-01-10T02:26:49;102694.13;;;-28.60;nan
69982;BME280;57319;56.274;43.980;2023-01-10T02:32:10;102695.00;;;-28.55;nan
69982;BME280;57319;56.274;43.980;2023-01-10T02:34:59;102692.31;;;-28.61;nan
69982;BME280;57319;56.274;43.980;2023-01-10T02:42:48;102704.97;;;-28.84;nan
69982;BME280;57319;56.274;43.980;2023-01-10T02:45:18;102703.53;;;-28.92;nan
69982;BME280;57319;56.274;43.980;2023-01-10T02:47:45;102703.34;;;-29.06;nan
69982;BME280;57319;56.274;43.980;2023-01-10T02:50:23;102714.22;;;-29.08;nan
69982;BME280;57319;56.274;43.980;2023-01-10T02:52:49;102720.28;;;-29.10;nan
69982;BME280;57319;56.274;43.980;2023-01-10T02:55:15;102722.44;;;-29.16;nan
69982;BME280;57319;56.274;43.980;2023-01-10T02:57:53;102708.94;;;-29.23;nan
69982;BME280;57319;56.274;43.980;2023-01-10T03:10:36;102716.94;;;-29.45;nan
69982;BME280;57319;56.274;43.980;2023-01-10T03:13:09;102709.66;;;-29.41;nan
69982;BME280;57319;56.274;43.980;2023-01-10T03:15:37;102713.88;;;-29.36;nan
69982;BME280;57319;56.274;43.980;2023-01-10T03:18:19;102710.56;;;-29.36;nan
69982;BME280;57319;56.274;43.980;2023-01-10T03:20:46;102716.31;;;-29.40;nan
69982;BME280;57319;56.274;43.980;2023-01-10T03:23:12;102718.41;;;-29.37;nan
69982;BME280;57319;56.274;43.980;2023-01-10T03:25:38;102713.88;;;-29.36;nan
69982;BME280;57319;56.274;43.980;2023-01-10T03:33:07;102710.34;;;-29.12;nan
69982;BME280;57319;56.274;43.980;2023-01-10T03:35:53;102711.13;;;-28.99;nan
69982;BME280;57319;56.274;43.980;2023-01-10T03:40:58;102722.09;;;-28.75;nan
69982;BME280;57319;56.274;43.980;2023-01-10T03:46:35;102712.41;;;-28.44;nan
69982;BME280;57319;56.274;43.980;2023-01-10T03:49:03;102709.84;;;-28.32;nan
69982;BME280;57319;56.274;43.980;2023-01-10T03:51:29;102717.19;;;-28.14;nan
69982;BME280;57319;56.274;43.980;2023-01-10T03:53:57;102721.28;;;-28.00;nan
69982;BME280;57319;56.274;43.980;2023-01-10T03:56:23;102719.34;;;-27.93;nan
69982;BME280;57319;56.274;43.980;2023-01-10T03:58:48;102721.59;;;-27.81;nan
69982;BME280;57319;56.274;43.980;2023-01-10T04:01:14;102723.03;;;-27.73;nan
69982;BME280;57319;56.274;43.980;2023-01-10T04:03:39;102707.84;;;-27.72;nan
69982;BME280;57319;56.274;43.980;2023-01-10T04:06:04;102728.22;;;-27.54;nan
69982;BME280;57319;56.274;43.980;2023-01-10T04:08:30;102733.81;;;-27.45;nan
69982;BME280;57319;56.274;43.980;2023-01-10T04:10:55;102736.47;;;-27.39;nan
69982;BME280;57319;56.274;43.980;2023-01-10T04:13:21;102737.94;;;-27.35;nan
69982;BME280;57319;56.274;43.980;2023-01-10T04:15:46;102728.16;;;-27.31;nan
69982;BME280;57319;56.274;43.980;2023-01-10T04:18:11;102727.19;;;-27.28;nan
69982;BME280;57319;56.274;43.980;2023-01-10T04:20:37;102732.72;;;-27.33;nan
69982;BME280;57319;56.274;43.980;2023-01-10T04:23:02;102724.94;;;-27.36;nan
69982;BME280;57319;56.274;43.980;2023-01-10T04:25:27;102741.03;;;-27.23;nan
69982;BME280;57319;56.274;43.980;2023-01-10T04:27:53;102734.03;;;-27.21;nan
69982;BME280;57319;56.274;43.980;2023-01-10T04:30:18;102737.38;;;-27.21;nan
69982;BME280;57319;56.274;43.980;2023-01-10T04:32:44;102749.16;;;-27.18;nan
69982;BME280;57319;56.274;43.980;2023-01-10T04:35:10;102748.25;;;-27.19;nan
69982;BME280;57319;56.274;43.980;2023-01-10T04:37:35;102752.06;;;-27.11;nan
69982;BME280;57319;56.274;43.980;2023-01-10T04:40:02;102755.19;;;-27.16;nan
69982;BME280;57319;56.274;43.980;2023-01-10T04:42:28;102742.50;;;-27.19;nan
69982;BME280;57319;56.274;43.980;2023-01-10T04:44:53;102755.25;;;-27.20;nan
69982;BME280;57319;56.274;43.980;2023-01-10T04:47:18;102743.72;;;-27.21;nan
69982;BME280;57319;56.274;43.980;2023-01-10T04:49:44;102738.28;;;-27.38;nan
69982;BME280;57319;56.274;43.980;2023-01-10T04:52:09;102750.28;;;-27.34;nan
69982;BME280;57319;56.274;43.980;2023-01-10T04:54:35;102746.97;;;-27.34;nan
69982;BME280;57319;56.274;43.980;2023-01-10T04:57:00;102749.97;;;-27.31;nan
69982;BME280;57319;56.274;43.980;2023-01-10T04:59:26;102758.22;;;-27.35;nan
69982;BME280;57319;56.274;43.980;2023-01-10T05:01:51;102748.50;;;-27.35;nan
69982;BME280;57319;56.274;43.980;2023-01-10T05:04:16;102745.81;;;-27.37;nan
69982;BME280;57319;56.274;43.980;2023-01-10T05:06:42;102745.81;;;-27.37;nan
69982;BME280;57319;56.274;43.980;2023-01-10T05:09:07;102741.91;;;-27.36;nan
69982;BME280;57319;56.274;43.980;2023-01-10T05:11:33;102763.19;;;-27.25;nan
69982;BME280;57319;56.274;43.980;2023-01-10T05:13:58;102762.69;;;-27.32;nan
69982;BME280;57319;56.274;43.980;2023-01-10T05:16:24;102762.69;;;-27.32;nan
69982;BME280;57319;56.274;43.980;2023-01-10T05:18:49;102764.50;;;-27.31;nan
69982;BME280;57319;56.274;43.980;2023-01-10T05:21:16;102761.03;;;-27.42;nan
69982;BME280;57319;56.274;43.980;2023-01-10T05:23:41;102753.81;;;-27.46;nan
69982;BME280;57319;56.274;43.980;2023-01-10T05:26:08;102756.63;;;-27.30;nan
69982;BME280;57319;56.274;43.980;2023-01-10T05:28:34;102762.56;;;-27.24;nan
69982;BME280;57319;56.274;43.980;2023-01-10T05:30:59;102756.78;;;-27.21;nan
69982;BME280;57319;56.274;43.980;2023-01-10T05:33:24;102760.16;;;-27.06;nan
69982;BME280;57319;56.274;43.980;2023-01-10T05:35:50;102758.88;;;-27.00;nan
69982;BME280;57319;56.274;43.980;2023-01-10T05:38:15;102760.84;;;-26.89;nan
69982;BME280;57319;56.274;43.980;2023-01-10T05:40:40;102750.28;;;-26.94;nan
69982;BME280;57319;56.274;43.980;2023-01-10T05:43:06;102754.31;;;-26.80;nan
69982;BME280;57319;56.274;43.980;2023-01-10T05:45:31;102763.75;;;-26.82;nan
69982;BME280;57319;56.274;43.980;2023-01-10T05:47:57;102774.84;;;-26.74;nan
69982;BME280;57319;56.274;43.980;2023-01-10T05:50:22;102778.59;;;-26.67;nan
69982;BME280;57319;56.274;43.980;2023-01-10T05:52:47;102776.78;;;-26.68;nan
69982;BME280;57319;56.274;43.980;2023-01-10T05:55:13;102781.25;;;-26.61;nan
69982;BME280;57319;56.274;43.980;2023-01-10T05:57:38;102786.03;;;-26.57;nan
69982;BME280;57319;56.274;43.980;2023-01-10T06:00:04;102795.03;;;-26.52;nan
69982;BME280;57319;56.274;43.980;2023-01-10T06:02:30;102776.91;;;-26.54;nan
69982;BME280;57319;56.274;43.980;2023-01-10T06:04:56;102801.22;;;-26.40;nan
69982;BME280;57319;56.274;43.980;2023-01-10T06:07:22;102785.75;;;-26.40;nan
69982;BME280;57319;56.274;43.980;2023-01-10T06:09:47;102797.88;;;-26.40;nan
69982;BME280;57319;56.274;43.980;2023-01-10T06:12:15;102799.13;;;-26.42;nan
69982;BME280;57319;56.274;43.980;2023-01-10T06:14:42;102800.94;;;-26.41;nan
69982;BME280;57319;56.274;43.980;2023-01-10T06:17:08;102805.22;;;-26.44;nan
69982;BME280;57319;56.274;43.980;2023-01-10T06:19:34;102815.28;;;-26.47;nan
69982;BME280;57319;56.274;43.980;2023-01-10T06:22:00;102810.06;;;-26.44;nan
69982;BME280;57319;56.274;43.980;2023-01-10T06:24:25;102785.34;;;-26.52;nan
69982;BME280;57319;56.274;43.980;2023-01-10T06:26:50;102814.84;;;-26.22;nan
69982;BME280;57319;56.274;43.980;2023-01-10T06:29:16;102811.38;;;-26.14;nan
69982;BME280;57319;56.274;43.980;2023-01-10T06:31:41;102815.47;;;-26.05;nan
69982;BME280;57319;56.274;43.980;2023-01-10T06:34:07;102821.94;;;-25.96;nan
69982;BME280;57319;56.274;43.980;2023-01-10T06:36:32;102810.97;;;-25.94;nan
69982;BME280;57319;56.274;43.980;2023-01-10T06:38:57;102805.16;;;-25.90;nan
69982;BME280;57319;56.274;43.980;2023-01-10T06:41:23;102802.16;;;-25.93;nan
69982;BME280;57319;56.274;43.980;2023-01-10T06:43:48;102811.00;;;-25.80;nan
69982;BME280;57319;56.274;43.980;2023-01-10T06:46:14;102813.44;;;-25.80;nan
69982;BME280;57319;56.274;43.980;2023-01-10T06:48:41;102815.16;;;-25.75;nan
69982;BME280;57319;56.274;43.980;2023-01-10T06:51:09;102819.88;;;-25.67;nan
69982;BME280;57319;56.274;43.980;2023-01-10T06:53:34;102822.09;;;-25.72;nan
69982;BME280;57319;56.274;43.980;2023-01-10T06:55:59;102826.97;;;-25.58;nan
69982;BME280;57319;56.274;43.980;2023-01-10T06:58:25;102822.03;;;-25.54;nan
69982;BME280;57319;56.274;43.980;2023-01-10T07:00:50;102824.13;;;-25.52;nan
69982;BME280;57319;56.274;43.980;2023-01-10T07:03:16;102798.38;;;-25.55;nan
69982;BME280;57319;56.274;43.980;2023-01-10T07:05:41;102807.13;;;-25.52;nan
69982;BME280;57319;56.274;43.980;2023-01-10T07:08:06;102823.66;;;-25.31;nan
69982;BME280;57319;56.274;43.980;2023-01-10T07:10:32;102828.69;;;-25.25;nan
69982;BME280;57319;56.274;43.980;2023-01-10T07:12:57;102822.03;;;-25.26;nan
69982;BME280;57319;56.274;43.980;2023-01-10T07:15:23;102818.34;;;-25.24;nan
69982;BME280;57319;56.274;43.980;2023-01-10T07:17:49;102834.19;;;-25.13;nan
69982;BME280;57319;56.274;43.980;2023-01-10T07:20:14;102821.41;;;-25.11;nan
69982;BME280;57319;56.274;43.980;2023-01-10T07:22:40;102832.13;;;-25.01;nan
69982;BME280;57319;56.274;43.980;2023-01-10T07:25:05;102823.84;;;-24.98;nan
69982;BME280;57319;56.274;43.980;2023-01-10T07:27:32;102839.78;;;-24.90;nan
69982;BME280;57319;56.274;43.980;2023-01-10T07:29:58;102828.59;;;-24.80;nan
69982;BME280;57319;56.274;43.980;2023-01-10T07:32:24;102838.50;;;-24.74;nan
69982;BME280;57319;56.274;43.980;2023-01-10T07:34:50;102844.00;;;-24.61;nan
69982;BME280;57319;56.274;43.980;2023-01-10T07:37:15;102829.63;;;-24.59;nan
69982;BME280;57319;56.274;43.980;2023-01-10T07:39:41;102832.22;;;-24.54;nan
69982;BME280;57319;56.274;43.980;2023-01-10T07:42:08;102827.97;;;-24.55;nan
69982;BME280;57319;56.274;43.980;2023-01-10T07:44:33;102804.13;;;-24.62;nan
69982;BME280;57319;56.274;43.980;2023-01-10T07:46:58;102829.28;;;-24.33;nan
69982;BME280;57319;56.274;43.980;2023-01-10T07:49:24;102816.53;;;-24.46;nan
69982;BME280;57319;56.274;43.980;2023-01-10T07:51:49;102829.38;;;-24.37;nan
69982;BME280;57319;56.274;43.980;2023-01-10T07:54:15;102830.72;;;-24.30;nan
69982;BME280;57319;56.274;43.980;2023-01-10T07:56:40;102817.53;;;-24.26;nan
69982;BME280;57319;56.274;43.980;2023-01-10T07:59:06;102834.34;;;-24.18;nan
69982;BME280;57319;56.274;43.980;2023-01-10T08:01:31;102839.22;;;-24.18;nan
69982;BME280;57319;56.274;43.980;2023-01-10T08:03:57;102798.09;;;-24.40;nan
69982;BME280;57319;56.274;43.980;2023-01-10T08:06:23;102840.81;;;-24.08;nan
69982;BME280;57319;56.274;43.980;2023-01-10T08:08:48;102838.19;;;-24.00;nan
69982;BME280;57319;56.274;43.980;2023-01-10T08:11:13;102830.75;;;-23.96;nan
69982;BME280;57319;56.274;43.980;2023-01-10T08:13:39;102831.28;;;-23.93;nan
69982;BME280;57319;56.274;43.980;2023-01-10T08:16:05;102820.13;;;-23.87;nan
69982;BME280;57319;56.274;43.980;2023-01-10T08:18:31;102813.59;;;-23.82;nan
69982;BME280;57319;56.274;43.980;2023-01-10T08:20:56;102836.53;;;-23.62;nan
69982;BME280;57319;56.274;43.980;2023-01-10T08:23:22;102804.91;;;-23.76;nan
69982;BME280;57319;56.274;43.980;2023-01-10T08:25:48;102802.13;;;-23.73;nan
69982;BME280;57319;56.274;43.980;2023-01-10T08:28:15;102822.38;;;-23.69;nan
69982;BME280;57319;56.274;43.980;2023-01-10T08:30:40;102831.03;;;-23.51;nan
69982;BME280;57319;56.274;43.980;2023-01-10T08:33:06;102823.06;;;-23.50;nan
69982;BME280;57319;56.274;43.980;2023-01-10T08:35:36;102813.31;;;-23.50;nan
69982;BME280;57319;56.274;43.980;2023-01-10T08:38:02;102809.09;;;-23.51;nan
69982;BME280;57319;56.274;43.980;2023-01-10T08:40:27;102823.75;;;-23.42;nan
69982;BME280;57319;56.274;43.980;2023-01-10T08:43:03;102815.41;;;-23.38;nan
69982;BME280;57319;56.274;43.980;2023-01-10T08:45:29;102823.28;;;-23.25;nan
69982;BME280;57319;56.274;43.980;2023-01-10T08:47:55;102814.78;;;-23.27;nan
69982;BME280;57319;56.274;43.980;2023-01-10T08:50:21;102814.66;;;-23.23;nan
69982;BME280;57319;56.274;43.980;2023-01-10T08:52:46;102796.19;;;-23.27;nan
69982;BME280;57319;56.274;43.980;2023-01-10T08:55:12;102799.63;;;-23.30;nan
69982;BME280;57319;56.274;43.980;2023-01-10T08:57:38;102800.75;;;-23.48;nan
69982;BME280;57319;56.274;43.980;2023-01-10T09:00:03;102800.84;;;-23.62;nan
69982;BME280;57319;56.274;43.980;2023-01-10T09:02:29;102800.81;;;-23.71;nan
69982;BME280;57319;56.274;43.980;2023-01-10T09:04:54;102783.59;;;-23.97;nan
69982;BME280;57319;56.274;43.980;2023-01-10T09:07:20;102806.19;;;-23.78;nan
69982;BME280;57319;56.274;43.980;2023-01-10T09:09:45;102810.38;;;-23.87;nan
69982;BME280;57319;56.274;43.980;2023-01-10T09:12:11;102806.91;;;-23.93;nan
69982;BME280;57319;56.274;43.980;2023-01-10T09:14:55;102801.00;;;-23.99;nan
69982;BME280;57319;56.274;43.980;2023-01-10T09:17:20;102800.50;;;-24.02;nan
69982;BME280;57319;56.274;43.980;2023-01-10T09:19:46;102798.50;;;-24.19;nan
69982;BME280;57319;56.274;43.980;2023-01-10T09:22:11;102785.91;;;-24.16;nan
69982;BME280;57319;56.274;43.980;2023-01-10T09:24:37;102798.09;;;-24.16;nan
69982;BME280;57319;56.274;43.980;2023-01-10T09:27:04;102802.44;;;-24.19;nan
69982;BME280;57319;56.274;43.980;2023-01-10T09:29:29;102796.31;;;-24.17;nan
69982;BME280;57319;56.274;43.980;2023-01-10T09:31:55;102791.19;;;-24.19;nan
69982;BME280;57319;56.274;43.980;2023-01-10T09:34:20;102780.66;;;-24.14;nan
69982;BME280;57319;56.274;43.980;2023-01-10T09:36:46;102792.38;;;-24.07;nan
69982;BME280;57319;56.274;43.980;2023-01-10T09:39:12;102793.19;;;-24.02;nan
69982;BME280;57319;56.274;43.980;2023-01-10T09:46:45;102784.00;;;-23.80;nan
69982;BME280;57319;56.274;43.980;2023-01-10T09:51:45;102764.75;;;-23.88;nan
69982;BME280;57319;56.274;43.980;2023-01-10T09:54:16;102782.44;;;-23.79;nan
69982;BME280;57319;56.274;43.980;2023-01-10T09:56:43;102786.97;;;-23.67;nan
69982;BME280;57319;56.274;43.980;2023-01-10T09:59:13;102782.16;;;-23.57;nan
69982;BME280;57319;56.274;43.980;2023-01-10T10:01:39;102783.16;;;-23.51;nan
69982;BME280;57319;56.274;43.980;2023-01-10T10:06:36;102801.31;;;-23.25;nan
69982;BME280;57319;56.274;43.980;2023-01-10T10:09:02;102788.13;;;-23.12;nan
69982;BME280;57319;56.274;43.980;2023-01-10T10:11:36;102797.09;;;-22.87;nan
69982;BME280;57319;56.274;43.980;2023-01-10T10:14:10;102789.22;;;-22.80;nan
69982;BME280;57319;56.274;43.980;2023-01-10T10:26:56;102796.00;;;-22.64;nan
69982;BME280;57319;56.274;43.980;2023-01-10T10:29:42;102794.13;;;-22.70;nan
69982;BME280;57319;56.274;43.980;2023-01-10T10:34:41;102773.69;;;-22.81;nan
69982;BME280;57319;56.274;43.980;2023-01-10T10:37:10;102784.22;;;-22.66;nan
69982;BME280;57319;56.274;43.980;2023-01-10T10:42:11;102779.84;;;-22.63;nan
69982;BME280;57319;56.274;43.980;2023-01-10T10:47:10;102796.16;;;-22.58;nan
69982;BME280;57319;56.274;43.980;2023-01-10T10:52:28;102791.16;;;-22.54;nan
69982;BME280;57319;56.274;43.980;2023-01-10T10:54:58;102776.75;;;-22.72;nan
69982;BME280;57319;56.274;43.980;2023-01-10T10:57:26;102776.91;;;-22.66;nan
69982;BME280;57319;56.274;43.980;2023-01-10T10:59:52;102787.81;;;-22.64;nan
69982;BME280;57319;56.274;43.980;2023-01-10T11:02:22;102785.00;;;-22.71;nan
69982;BME280;57319;56.274;43.980;2023-01-10T11:04:48;102794.09;;;-22.80;nan
69982;BME280;57319;56.274;43.980;2023-01-10T11:07:15;102787.69;;;-22.80;nan
69982;BME280;57319;56.274;43.980;2023-01-10T11:09:41;102782.16;;;-22.88;nan
69982;BME280;57319;56.274;43.980;2023-01-10T11:12:16;102794.75;;;-23.01;nan
69982;BME280;57319;56.274;43.980;2023-01-10T11:14:44;102776.44;;;-23.18;nan
69982;BME280;57319;56.274;43.980;2023-01-10T11:19:41;102789.09;;;-23.45;nan
69982;BME280;57319;56.274;43.980;2023-01-10T11:22:18;102770.84;;;-23.56;nan
69982;BME280;57319;56.274;43.980;2023-01-10T11:24:54;102789.16;;;-23.68;nan
69982;BME280;57319;56.274;43.980;2023-01-10T11:27:27;102797.63;;;-23.66;nan
69982;BME280;57319;56.274;43.980;2023-01-10T11:32:27;102794.63;;;-23.79;nan
69982;BME280;57319;56.274;43.980;2023-01-10T11:34:55;102807.72;;;-23.79;nan
69982;BME280;57319;56.274;43.980;2023-01-10T11:37:26;102812.97;;;-23.81;nan
69982;BME280;57319;56.274;43.980;2023-01-10T11:40:29;102802.34;;;-23.82;nan
69982;BME280;57319;56.274;43.980;2023-01-10T11:42:48;102808.72;;;-23.82;nan
69982;BME280;57319;56.274;43.980;2023-01-10T11:47:54;102803.59;;;-23.84;nan
69982;BME280;57319;56.274;43.980;2023-01-10T11:50:21;102779.50;;;-23.92;nan
69982;BME280;57319;56.274;43.980;2023-01-10T11:52:48;102803.38;;;-23.76;nan
69982;BME280;57319;56.274;43.980;2023-01-10T11:55:17;102795.53;;;-23.79;nan
69982;BME280;57319;56.274;43.980;2023-01-10T11:57:44;102783.50;;;-23.73;nan
69982;BME280;57319;56.274;43.980;2023-01-10T12:00:38;102793.28;;;-23.63;nan
69982;BME280;57319;56.274;43.980;2023-01-10T12:03:14;102799.56;;;-23.69;nan
69982;BME280;57319;56.274;43.980;2023-01-10T12:05:47;102802.41;;;-23.62;nan
69982;BME280;57319;56.274;43.980;2023-01-10T12:08:23;102771.03;;;-23.84;nan
69982;BME280;57319;56.274;43.980;2023-01-10T12:10:55;102799.81;;;-23.68;nan
69982;BME280;57319;56.274;43.980;2023-01-10T12:13:21;102803.00;;;-23.73;nan
69982;BME280;57319;56.274;43.980;2023-01-10T12:15:46;102791.56;;;-23.78;nan
69982;BME280;57319;56.274;43.980;2023-01-10T12:18:13;102794.72;;;-23.83;nan
69982;BME280;57319;56.274;43.980;2023-01-10T12:20:48;102798.97;;;-23.82;nan
69982;BME280;57319;56.274;43.980;2023-01-10T12:23:16;102786.91;;;-23.86;nan
69982;BME280;57319;56.274;43.980;2023-01-10T12:25:42;102789.59;;;-23.95;nan
69982;BME280;57319;56.274;43.980;2023-01-10T12:28:12;102801.41;;;-23.92;nan
69982;BME280;57319;56.274;43.980;2023-01-10T12:30:40;102784.44;;;-24.06;nan
69982;BME280;57319;56.274;43.980;2023-01-10T12:35:58;102807.69;;;-23.98;nan
69982;BME280;57319;56.274;43.980;2023-01-10T12:38:29;102805.72;;;-24.05;nan
69982;BME280;57319;56.274;43.980;2023-01-10T12:41:17;102807.09;;;-24.11;nan
69982;BME280;57319;56.274;43.980;2023-01-10T12:44:03;102819.00;;;-24.13;nan
69982;BME280;57319;56.274;43.980;2023-01-10T12:46:57;102819.44;;;-24.05;nan
69982;BME280;57319;56.274;43.980;2023-01-10T12:49:23;102831.50;;;-24.01;nan
69982;BME280;57319;56.274;43.980;2023-01-10T12:51:51;102844.59;;;-24.01;nan
69982;BME280;57319;56.274;43.980;2023-01-10T12:54:21;102835.06;;;-24.09;nan
69982;BME280;57319;56.274;43.980;2023-01-10T12:56:48;102840.63;;;-24.00;nan
69982;BME280;57319;56.274;43.980;2023-01-10T12:59:16;102840.25;;;-23.98;nan
69982;BME280;57319;56.274;43.980;2023-01-10T13:01:44;102826.69;;;-24.15;nan
69982;BME280;57319;56.274;43.980;2023-01-10T13:04:15;102834.84;;;-24.01;nan
69982;BME280;57319;56.274;43.980;2023-01-10T13:06:42;102833.31;;;-24.00;nan
69982;BME280;57319;56.274;43.980;2023-01-10T13:09:12;102816.00;;;-24.02;nan
69982;BME280;57319;56.274;43.980;2023-01-10T13:11:43;102818.06;;;-23.99;nan
69982;BME280;57319;56.274;43.980;2023-01-10T13:14:12;102825.63;;;-23.98;nan
69982;BME280;57319;56.274;43.980;2023-01-10T13:16:49;102819.31;;;-24.01;nan
69982;BME280;57319;56.274;43.980;2023-01-10T13:21:45;102811.53;;;-23.95;nan
69982;BME280;57319;56.274;43.980;2023-01-10T13:29:14;102785.31;;;-24.05;nan
69982;BME280;57319;56.274;43.980;2023-01-10T13:31:41;102823.97;;;-23.93;nan
69982;BME280;57319;56.274;43.980;2023-01-10T13:34:12;102823.97;;;-23.93;nan
69982;BME280;57319;56.274;43.980;2023-01-10T13:36:39;102806.97;;;-24.07;nan
69982;BME280;57319;56.274;43.980;2023-01-10T13:39:06;102836.63;;;-24.00;nan
69982;BME280;57319;56.274;43.980;2023-01-10T13:52:48;102814.63;;;-24.19;nan
69982;BME280;57319;56.274;43.980;2023-01-10T14:00:50;102823.72;;;-24.18;nan
69982;BME280;57319;56.274;43.980;2023-01-10T14:03:39;102816.78;;;-24.21;nan
69982;BME280;57319;56.274;43.980;2023-01-10T14:06:13;102806.53;;;-24.24;nan
69982;BME280;57319;56.274;43.980;2023-01-10T14:08:46;102813.22;;;-24.23;nan
69982;BME280;57319;56.274;43.980;2023-01-10T14:11:12;102811.41;;;-24.24;nan
69982;BME280;57319;56.274;43.980;2023-01-10T14:13:38;102813.22;;;-24.23;nan
69982;BME280;57319;56.274;43.980;2023-01-10T14:16:26;102800.75;;;-24.24;nan
69982;BME280;57319;56.274;43.980;2023-01-10T14:18:52;102808.22;;;-24.19;nan
69982;BME280;57319;56.274;43.980;2023-01-10T14:21:20;102816.06;;;-24.16;nan
69982;BME280;57319;56.274;43.980;2023-01-10T14:23:48;102815.53;;;-24.19;nan
69982;BME280;57319;56.274;43.980;2023-01-10T14:26:20;102815.53;;;-24.19;nan
69982;BME280;57319;56.274;43.980;2023-01-10T14:28:47;102809.28;;;-24.13;nan
69982;BME280;57319;56.274;43.980;2023-01-10T14:31:20;102802.44;;;-24.19;nan
69982;BME280;57319;56.274;43.980;2023-01-10T14:33:47;102822.06;;;-24.14;nan